createdAt,value
2024-04-25T00:00:24.656Z,535.00
2024-04-25T00:01:24.627Z,535.00
2024-04-25T00:02:24.654Z,535.00
2024-04-25T00:03:24.613Z,535.00
2024-04-25T00:04:24.605Z,536.00
2024-04-25T00:05:24.573Z,533.00
2024-04-25T00:06:24.505Z,536.00
2024-04-25T00:07:24.492Z,536.00
2024-04-25T00:08:24.487Z,539.00
2024-04-25T00:09:24.422Z,538.00
2024-04-25T00:10:24.401Z,537.00
2024-04-25T00:11:24.405Z,534.00
2024-04-25T00:12:24.353Z,533.00
2024-04-25T00:13:24.327Z,532.00
2024-04-25T00:14:24.331Z,531.00
2024-04-25T00:15:24.278Z,531.00
2024-04-25T00:16:24.271Z,535.00
2024-04-25T00:17:24.247Z,535.00
2024-04-25T00:18:24.214Z,532.00
2024-04-25T00:19:24.169Z,530.00
2024-04-25T00:20:24.138Z,529.00
2024-04-25T00:21:24.116Z,529.00
2024-04-25T00:22:24.061Z,528.00
2024-04-25T00:23:24.045Z,528.00
2024-04-25T00:24:24.021Z,528.00
2024-04-25T00:25:23.994Z,529.00
2024-04-25T00:26:23.988Z,528.00
2024-04-25T00:27:23.962Z,531.00
2024-04-25T00:28:23.972Z,532.00
2024-04-25T00:29:23.940Z,531.00
2024-04-25T00:30:23.920Z,530.00
2024-04-25T00:31:23.900Z,527.00
2024-04-25T00:32:23.944Z,525.00
2024-04-25T00:33:23.970Z,523.00
2024-04-25T00:34:23.848Z,524.00
2024-04-25T00:35:23.866Z,525.00
2024-04-25T00:36:23.797Z,524.00
2024-04-25T00:37:23.785Z,523.00
2024-04-25T00:38:23.834Z,523.00
2024-04-25T00:39:23.753Z,524.00
2024-04-25T00:40:23.770Z,525.00
2024-04-25T00:41:23.756Z,526.00
2024-04-25T00:42:23.707Z,526.00
2024-04-25T00:43:23.674Z,527.00
2024-04-25T00:44:23.670Z,527.00
2024-04-25T00:45:23.642Z,528.00
2024-04-25T00:46:23.623Z,528.00
2024-04-25T00:47:23.760Z,529.00
2024-04-25T00:48:23.621Z,530.00
2024-04-25T00:49:23.553Z,528.00
2024-04-25T00:50:23.557Z,531.00
2024-04-25T00:51:23.490Z,528.00
2024-04-25T00:52:23.503Z,525.00
2024-04-25T00:53:23.484Z,526.00
2024-04-25T00:54:23.432Z,525.00
2024-04-25T00:55:23.387Z,524.00
2024-04-25T00:56:23.417Z,524.00
2024-04-25T00:57:23.364Z,524.00
2024-04-25T00:58:23.351Z,522.00
2024-04-25T00:59:23.364Z,521.00
2024-04-25T01:00:23.315Z,525.00
2024-04-25T01:01:23.282Z,525.00
2024-04-25T01:02:23.356Z,523.00
2024-04-25T01:03:23.322Z,522.00
2024-04-25T01:04:23.257Z,521.00
2024-04-25T01:05:23.290Z,521.00
2024-04-25T01:06:23.204Z,521.00
2024-04-25T01:07:23.184Z,521.00
2024-04-25T01:08:23.206Z,521.00
2024-04-25T01:09:23.144Z,519.00
2024-04-25T01:10:23.153Z,520.00
2024-04-25T01:11:23.216Z,521.00
2024-04-25T01:12:23.126Z,522.00
2024-04-25T01:13:23.087Z,522.00
2024-04-25T01:14:23.191Z,520.00
2024-04-25T01:15:23.048Z,519.00
2024-04-25T01:16:23.060Z,521.00
2024-04-25T01:17:23.041Z,521.00
2024-04-25T01:18:23.027Z,521.00
2024-04-25T01:19:23.005Z,519.00
2024-04-25T01:20:23.021Z,520.00
2024-04-25T01:21:22.974Z,520.00
2024-04-25T01:22:22.955Z,520.00
2024-04-25T01:23:22.960Z,521.00
2024-04-25T01:24:22.919Z,523.00
2024-04-25T01:25:22.911Z,524.00
2024-04-25T01:26:22.990Z,524.00
2024-04-25T01:27:22.855Z,524.00
2024-04-25T01:28:22.840Z,523.00
2024-04-25T01:29:22.984Z,523.00
2024-04-25T01:30:22.783Z,523.00
2024-04-25T01:31:22.741Z,526.00
2024-04-25T01:32:22.711Z,528.00
2024-04-25T01:33:22.730Z,526.00
2024-04-25T01:34:22.654Z,524.00
2024-04-25T01:35:22.673Z,526.00
2024-04-25T01:36:22.591Z,525.00
2024-04-25T01:37:22.576Z,524.00
2024-04-25T01:38:22.540Z,522.00
2024-04-25T01:39:22.487Z,520.00
2024-04-25T01:40:22.458Z,517.00
2024-04-25T01:41:22.467Z,519.00
2024-04-25T01:42:22.417Z,520.00
2024-04-25T01:43:22.367Z,521.00
2024-04-25T01:44:22.414Z,521.00
2024-04-25T01:45:22.332Z,520.00
2024-04-25T01:46:22.280Z,521.00
2024-04-25T01:47:22.369Z,520.00
2024-04-25T01:48:22.397Z,520.00
2024-04-25T01:49:22.207Z,518.00
2024-04-25T01:50:22.192Z,517.00
2024-04-25T01:51:22.140Z,516.00
2024-04-25T01:52:22.119Z,519.00
2024-04-25T01:53:22.111Z,518.00
2024-04-25T01:54:22.043Z,518.00
2024-04-25T01:55:22.015Z,518.00
2024-04-25T01:56:22.053Z,517.00
2024-04-25T01:57:21.970Z,518.00
2024-04-25T01:58:21.958Z,520.00
2024-04-25T01:59:21.946Z,519.00
2024-04-25T02:00:21.908Z,520.00
2024-04-25T02:01:21.916Z,521.00
2024-04-25T02:02:21.966Z,523.00
2024-04-25T02:03:21.946Z,522.00
2024-04-25T02:04:21.845Z,520.00
2024-04-25T02:05:21.885Z,518.00
2024-04-25T02:06:21.814Z,518.00
2024-04-25T02:07:21.807Z,518.00
2024-04-25T02:08:21.808Z,521.00
2024-04-25T02:09:21.772Z,519.00
2024-04-25T02:10:21.771Z,522.00
2024-04-25T02:11:21.793Z,521.00
2024-04-25T02:12:21.763Z,521.00
2024-04-25T02:13:21.722Z,524.00
2024-04-25T02:14:21.737Z,522.00
2024-04-25T02:15:21.698Z,524.00
2024-04-25T02:16:21.678Z,522.00
2024-04-25T02:17:21.703Z,522.00
2024-04-25T02:18:21.706Z,522.00
2024-04-25T02:19:21.647Z,523.00
2024-04-25T02:20:21.714Z,522.00
2024-04-25T02:21:21.621Z,520.00
2024-04-25T02:22:21.592Z,521.00
2024-04-25T02:23:21.584Z,522.00
2024-04-25T02:24:21.567Z,522.00
2024-04-25T02:25:21.634Z,521.00
2024-04-25T02:26:21.576Z,520.00
2024-04-25T02:27:21.503Z,520.00
2024-04-25T02:28:21.502Z,518.00
2024-04-25T02:29:21.489Z,518.00
2024-04-25T02:30:21.459Z,516.00
2024-04-25T02:31:21.445Z,517.00
2024-04-25T02:32:21.521Z,516.00
2024-04-25T02:33:21.440Z,514.00
2024-04-25T02:34:21.374Z,513.00
2024-04-25T02:35:21.401Z,513.00
2024-04-25T02:36:21.347Z,513.00
2024-04-25T02:37:21.350Z,515.00
2024-04-25T02:38:21.350Z,515.00
2024-04-25T02:39:21.322Z,516.00
2024-04-25T02:40:21.325Z,516.00
2024-04-25T02:41:21.329Z,516.00
2024-04-25T02:42:21.268Z,514.00
2024-04-25T02:43:21.268Z,516.00
2024-04-25T02:44:21.285Z,516.00
2024-04-25T02:45:21.196Z,515.00
2024-04-25T02:46:21.179Z,516.00
2024-04-25T02:47:21.229Z,518.00
2024-04-25T02:48:21.232Z,519.00
2024-04-25T02:49:21.122Z,518.00
2024-04-25T02:50:21.166Z,516.00
2024-04-25T02:51:21.096Z,520.00
2024-04-25T02:52:21.056Z,521.00
2024-04-25T02:53:21.076Z,524.00
2024-04-25T02:54:21.034Z,522.00
2024-04-25T02:55:21.018Z,525.00
2024-04-25T02:56:21.037Z,526.00
2024-04-25T02:57:20.979Z,526.00
2024-04-25T02:58:20.975Z,526.00
2024-04-25T02:59:20.978Z,527.00
2024-04-25T03:00:20.976Z,526.00
2024-04-25T03:01:20.936Z,527.00
2024-04-25T03:02:21.060Z,526.00
2024-04-25T03:03:21.142Z,525.00
2024-04-25T03:04:20.906Z,523.00
2024-04-25T03:05:20.954Z,519.00
2024-04-25T03:06:20.886Z,517.00
2024-04-25T03:07:20.859Z,519.00
2024-04-25T03:08:20.948Z,518.00
2024-04-25T03:09:20.912Z,520.00
2024-04-25T03:10:20.898Z,521.00
2024-04-25T03:11:20.957Z,523.00
2024-04-25T03:12:21.000Z,522.00
2024-04-25T03:13:20.953Z,523.00
2024-04-25T03:14:20.976Z,524.00
2024-04-25T03:15:20.965Z,522.00
2024-04-25T03:16:20.962Z,522.00
2024-04-25T03:17:21.017Z,520.00
2024-04-25T03:18:21.084Z,519.00
2024-04-25T03:19:21.834Z,521.00
2024-04-25T03:20:20.998Z,524.00
2024-04-25T03:21:20.970Z,527.00
2024-04-25T03:22:20.993Z,524.00
2024-04-25T03:23:20.990Z,522.00
2024-04-25T03:24:20.969Z,521.00
2024-04-25T03:25:20.998Z,521.00
2024-04-25T03:26:21.006Z,523.00
2024-04-25T03:27:20.993Z,523.00
2024-04-25T03:28:21.006Z,523.00
2024-04-25T03:29:21.048Z,523.00
2024-04-25T03:30:21.021Z,524.00
2024-04-25T03:31:21.777Z,525.00
2024-04-25T03:32:21.104Z,524.00
2024-04-25T03:33:21.107Z,525.00
2024-04-25T03:34:21.026Z,525.00
2024-04-25T03:35:21.075Z,526.00
2024-04-25T03:36:21.015Z,523.00
2024-04-25T03:37:21.026Z,523.00
2024-04-25T03:38:21.103Z,523.00
2024-04-25T03:39:21.094Z,523.00
2024-04-25T03:40:21.079Z,524.00
2024-04-25T03:41:21.137Z,524.00
2024-04-25T03:42:21.060Z,524.00
2024-04-25T03:43:21.048Z,524.00
2024-04-25T03:44:21.138Z,521.00
2024-04-25T03:45:21.074Z,520.00
2024-04-25T03:46:21.078Z,521.00
2024-04-25T03:47:21.152Z,522.00
2024-04-25T03:48:21.243Z,523.00
2024-04-25T03:49:21.135Z,524.00
2024-04-25T03:50:21.146Z,523.00
2024-04-25T03:51:21.107Z,523.00
2024-04-25T03:52:21.133Z,524.00
2024-04-25T03:53:21.144Z,525.00
2024-04-25T03:54:21.120Z,522.00
2024-04-25T03:55:21.128Z,520.00
2024-04-25T03:56:21.189Z,522.00
2024-04-25T03:57:21.127Z,524.00
2024-04-25T03:58:21.140Z,524.00
2024-04-25T03:59:21.156Z,524.00
2024-04-25T04:00:21.146Z,525.00
2024-04-25T04:01:21.215Z,525.00
2024-04-25T04:02:21.202Z,524.00
2024-04-25T04:03:21.212Z,524.00
2024-04-25T04:04:21.158Z,522.00
2024-04-25T04:05:21.284Z,525.00
2024-04-25T04:06:21.168Z,522.00
2024-04-25T04:07:21.191Z,522.00
2024-04-25T04:08:21.257Z,521.00
2024-04-25T04:09:21.179Z,523.00
2024-04-25T04:10:21.207Z,526.00
2024-04-25T04:11:21.294Z,528.00
2024-04-25T04:12:21.204Z,528.00
2024-04-25T04:13:21.200Z,529.00
2024-04-25T04:14:21.238Z,531.00
2024-04-25T04:15:21.457Z,533.00
2024-04-25T04:16:21.282Z,531.00
2024-04-25T04:17:21.223Z,529.00
2024-04-25T04:18:21.296Z,530.00
2024-04-25T04:19:21.207Z,528.00
2024-04-25T04:20:21.218Z,526.00
2024-04-25T04:21:21.391Z,527.00
2024-04-25T04:22:21.207Z,528.00
2024-04-25T04:23:21.288Z,530.00
2024-04-25T04:24:21.205Z,529.00
2024-04-25T04:25:21.242Z,531.00
2024-04-25T04:26:21.231Z,532.00
2024-04-25T04:27:21.237Z,531.00
2024-04-25T04:28:21.209Z,530.00
2024-04-25T04:29:21.261Z,531.00
2024-04-25T04:30:21.211Z,531.00
2024-04-25T04:31:21.214Z,531.00
2024-04-25T04:32:21.365Z,532.00
2024-04-25T04:33:21.352Z,533.00
2024-04-25T04:34:21.233Z,534.00
2024-04-25T04:35:21.230Z,536.00
2024-04-25T04:36:21.203Z,537.00
2024-04-25T04:37:21.208Z,536.00
2024-04-25T04:38:21.213Z,534.00
2024-04-25T04:39:21.225Z,534.00
2024-04-25T04:40:21.227Z,532.00
2024-04-25T04:41:21.238Z,530.00
2024-04-25T04:42:21.195Z,530.00
2024-04-25T04:43:21.219Z,527.00
2024-04-25T04:44:21.237Z,530.00
2024-04-25T04:45:21.219Z,528.00
2024-04-25T04:46:21.209Z,528.00
2024-04-25T04:47:21.308Z,531.00
2024-04-25T04:48:30.898Z,532.00
2024-04-25T04:49:22.172Z,531.00
2024-04-25T04:50:21.193Z,531.00
2024-04-25T04:51:21.083Z,533.00
2024-04-25T04:52:21.038Z,529.00
2024-04-25T04:53:21.019Z,530.00
2024-04-25T04:54:20.942Z,528.00
2024-04-25T04:55:20.911Z,526.00
2024-04-25T04:56:20.874Z,527.00
2024-04-25T04:57:20.828Z,526.00
2024-04-25T04:58:20.748Z,528.00
2024-04-25T04:59:28.143Z,530.00
2024-04-25T05:00:28.118Z,526.00
2024-04-25T05:01:28.116Z,525.00
2024-04-25T05:02:28.177Z,525.00
2024-04-25T05:03:28.148Z,509.00
2024-04-25T05:04:28.091Z,504.00
2024-04-25T05:05:28.128Z,502.00
2024-04-25T05:06:28.066Z,505.00
2024-04-25T05:07:28.231Z,508.00
2024-04-25T05:08:28.066Z,510.00
2024-04-25T05:09:28.028Z,508.00
2024-04-25T05:10:28.029Z,507.00
2024-04-25T05:11:28.056Z,505.00
2024-04-25T05:12:29.385Z,502.00
2024-04-25T05:13:27.924Z,500.00
2024-04-25T05:14:27.938Z,501.00
2024-04-25T05:15:27.876Z,499.00
2024-04-25T05:16:27.936Z,491.00
2024-04-25T05:17:27.858Z,490.00
2024-04-25T05:18:27.844Z,488.00
2024-04-25T05:19:27.779Z,487.00
2024-04-25T05:20:27.822Z,491.00
2024-04-25T05:21:27.738Z,494.00
2024-04-25T05:22:27.717Z,504.00
2024-04-25T05:23:27.727Z,511.00
2024-04-25T05:24:27.671Z,512.00
2024-04-25T05:25:27.635Z,581.00
2024-04-25T05:26:27.687Z,590.00
2024-04-25T05:27:27.581Z,604.00
2024-04-25T05:28:27.550Z,639.00
2024-04-25T05:29:27.546Z,683.00
2024-04-25T05:30:27.500Z,711.00
2024-04-25T05:31:27.598Z,756.00
2024-04-25T05:32:27.622Z,757.00
2024-04-25T05:33:27.487Z,769.00
2024-04-25T05:34:27.405Z,773.00
2024-04-25T05:35:27.425Z,782.00
2024-04-25T05:36:27.341Z,787.00
2024-04-25T05:37:27.325Z,800.00
2024-04-25T05:38:27.343Z,816.00
2024-04-25T05:39:27.368Z,817.00
2024-04-25T05:40:27.335Z,838.00
2024-04-25T05:41:27.411Z,846.00
2024-04-25T05:42:27.388Z,854.00
2024-04-25T05:43:27.399Z,859.00
2024-04-25T05:44:28.269Z,864.00
2024-04-25T05:45:27.479Z,875.00
2024-04-25T05:46:27.501Z,873.00
2024-04-25T05:47:27.587Z,880.00
2024-04-25T05:48:27.656Z,885.00
2024-04-25T05:49:27.565Z,880.00
2024-04-25T05:50:27.629Z,874.00
2024-04-25T05:51:27.599Z,886.00
2024-04-25T05:52:28.585Z,887.00
2024-04-25T05:53:27.556Z,883.00
2024-04-25T05:54:27.485Z,895.00
2024-04-25T05:55:27.523Z,899.00
2024-04-25T05:56:27.474Z,900.00
2024-04-25T05:57:27.428Z,894.00
2024-04-25T05:58:27.365Z,903.00
2024-04-25T05:59:27.399Z,908.00
2024-04-25T06:00:27.300Z,903.00
2024-04-25T06:01:27.306Z,902.00
2024-04-25T06:02:27.478Z,901.00
2024-04-25T06:03:27.319Z,894.00
2024-04-25T06:04:27.308Z,909.00
2024-04-25T06:05:27.332Z,913.00
2024-04-25T06:06:27.353Z,911.00
2024-04-25T06:07:27.395Z,918.00
2024-04-25T06:08:27.426Z,925.00
2024-04-25T06:09:27.401Z,868.00
2024-04-25T06:10:27.505Z,902.00
2024-04-25T06:11:27.724Z,966.00
2024-04-25T06:12:27.546Z,942.00
2024-04-25T06:13:27.454Z,938.00
2024-04-25T06:14:27.450Z,936.00
2024-04-25T06:15:27.446Z,933.00
2024-04-25T06:16:27.509Z,925.00
2024-04-25T06:17:27.513Z,912.00
2024-04-25T06:18:27.601Z,897.00
2024-04-25T06:19:27.498Z,901.00
2024-04-25T06:20:27.615Z,904.00
2024-04-25T06:21:27.554Z,907.00
2024-04-25T06:22:27.587Z,911.00
2024-04-25T06:23:27.602Z,910.00
2024-04-25T06:24:27.621Z,923.00
2024-04-25T06:25:27.651Z,973.00
2024-04-25T06:26:27.754Z,956.00
2024-04-25T06:27:27.642Z,992.00
2024-04-25T06:28:27.702Z,1003.00
2024-04-25T06:29:27.738Z,1166.00
2024-04-25T06:30:27.719Z,987.00
2024-04-25T06:31:27.723Z,937.00
2024-04-25T06:32:27.794Z,932.00
2024-04-25T06:33:27.830Z,993.00
2024-04-25T06:34:27.783Z,968.00
2024-04-25T06:35:27.824Z,966.00
2024-04-25T06:36:27.835Z,949.00
2024-04-25T06:37:27.836Z,931.00
2024-04-25T06:38:28.846Z,928.00
2024-04-25T06:39:27.771Z,911.00
2024-04-25T06:40:27.783Z,890.00
2024-04-25T06:41:27.849Z,884.00
2024-04-25T06:42:27.694Z,879.00
2024-04-25T06:43:27.642Z,885.00
2024-04-25T06:44:32.215Z,886.00
2024-04-25T06:45:28.631Z,880.00
2024-04-25T06:46:27.555Z,874.00
2024-04-25T06:47:27.621Z,863.00
2024-04-25T06:48:27.601Z,869.00
2024-04-25T06:49:27.557Z,867.00
2024-04-25T06:50:27.475Z,875.00
2024-04-25T06:51:27.401Z,867.00
2024-04-25T06:52:27.397Z,863.00
2024-04-25T06:53:27.372Z,866.00
2024-04-25T06:54:29.745Z,855.00
2024-04-25T06:55:27.260Z,863.00
2024-04-25T06:56:27.364Z,861.00
2024-04-25T06:57:27.218Z,856.00
2024-04-25T06:58:27.174Z,872.00
2024-04-25T06:59:27.190Z,867.00
2024-04-25T07:00:27.087Z,864.00
2024-04-25T07:01:27.050Z,873.00
2024-04-25T07:02:27.040Z,863.00
2024-04-25T07:03:27.000Z,859.00
2024-04-25T07:04:26.946Z,854.00
2024-04-25T07:05:26.980Z,851.00
2024-04-25T07:06:26.876Z,852.00
2024-04-25T07:07:26.830Z,848.00
2024-04-25T07:08:26.920Z,851.00
2024-04-25T07:09:26.775Z,849.00
2024-04-25T07:10:26.727Z,851.00
2024-04-25T07:11:26.787Z,859.00
2024-04-25T07:12:26.730Z,854.00
2024-04-25T07:13:26.625Z,854.00
2024-04-25T07:14:26.625Z,856.00
2024-04-25T07:15:26.575Z,864.00
2024-04-25T07:16:26.544Z,862.00
2024-04-25T07:17:26.579Z,845.00
2024-04-25T07:18:26.609Z,866.00
2024-04-25T07:19:26.434Z,869.00
2024-04-25T07:20:26.435Z,878.00
2024-04-25T07:21:26.355Z,932.00
2024-04-25T07:22:26.318Z,939.00
2024-04-25T07:23:26.315Z,934.00
2024-04-25T07:24:26.261Z,919.00
2024-04-25T07:25:26.258Z,907.00
2024-04-25T07:26:26.217Z,895.00
2024-04-25T07:27:26.192Z,893.00
2024-04-25T07:28:26.139Z,898.00
2024-04-25T07:29:26.144Z,898.00
2024-04-25T07:30:26.053Z,882.00
2024-04-25T07:31:26.048Z,832.00
2024-04-25T07:32:26.066Z,818.00
2024-04-25T07:33:26.083Z,807.00
2024-04-25T07:34:25.926Z,790.00
2024-04-25T07:35:25.974Z,767.00
2024-04-25T07:36:25.857Z,746.00
2024-04-25T07:37:25.950Z,690.00
2024-04-25T07:38:25.909Z,692.00
2024-04-25T07:39:26.364Z,677.00
2024-04-25T07:40:25.779Z,668.00
2024-04-25T07:41:25.782Z,655.00
2024-04-25T07:42:25.735Z,641.00
2024-04-25T07:43:25.728Z,629.00
2024-04-25T07:44:25.744Z,618.00
2024-04-25T07:45:25.810Z,611.00
2024-04-25T07:46:25.724Z,600.00
2024-04-25T07:47:25.790Z,590.00
2024-04-25T07:48:25.838Z,582.00
2024-04-25T07:49:25.793Z,575.00
2024-04-25T07:50:25.794Z,567.00
2024-04-25T07:51:25.734Z,556.00
2024-04-25T07:52:28.299Z,554.00
2024-04-25T07:53:25.749Z,547.00
2024-04-25T07:54:25.705Z,542.00
2024-04-25T07:55:26.305Z,538.00
2024-04-25T07:56:25.667Z,530.00
2024-04-25T07:57:25.607Z,523.00
2024-04-25T07:58:25.587Z,521.00
2024-04-25T07:59:25.596Z,518.00
2024-04-25T08:00:25.546Z,516.00
2024-04-25T08:01:25.512Z,513.00
2024-04-25T08:02:25.569Z,508.00
2024-04-25T08:03:25.813Z,503.00
2024-04-25T08:04:25.480Z,500.00
2024-04-25T08:05:25.430Z,498.00
2024-04-25T08:06:25.387Z,498.00
2024-04-25T08:07:25.373Z,500.00
2024-04-25T08:08:26.213Z,495.00
2024-04-25T08:09:25.345Z,491.00
2024-04-25T08:10:25.285Z,490.00
2024-04-25T08:11:25.361Z,489.00
2024-04-25T08:12:25.234Z,488.00
2024-04-25T08:13:25.244Z,488.00
2024-04-25T08:14:25.222Z,489.00
2024-04-25T08:15:25.186Z,492.00
2024-04-25T08:16:25.196Z,526.00
2024-04-25T08:17:25.183Z,653.00
2024-04-25T08:18:25.131Z,697.00
2024-04-25T08:19:25.087Z,721.00
2024-04-25T08:20:27.243Z,732.00
2024-04-25T08:21:25.160Z,793.00
2024-04-25T08:22:25.169Z,797.00
2024-04-25T08:23:25.759Z,801.00
2024-04-25T08:24:25.157Z,815.00
2024-04-25T08:25:25.697Z,856.00
2024-04-25T08:26:25.256Z,858.00
2024-04-25T08:27:25.141Z,857.00
2024-04-25T08:28:25.160Z,867.00
2024-04-25T08:29:25.138Z,868.00
2024-04-25T08:30:25.146Z,872.00
2024-04-25T08:31:25.148Z,878.00
2024-04-25T08:32:26.433Z,874.00
2024-04-25T08:33:25.302Z,872.00
2024-04-25T08:34:25.364Z,870.00
2024-04-25T08:35:25.255Z,867.00
2024-04-25T08:36:25.874Z,871.00
2024-04-25T08:37:25.245Z,874.00
2024-04-25T08:38:25.841Z,873.00
2024-04-25T08:39:25.333Z,868.00
2024-04-25T08:40:26.275Z,867.00
2024-04-25T08:41:25.378Z,865.00
2024-04-25T08:42:25.336Z,863.00
2024-04-25T08:43:26.246Z,869.00
2024-04-25T08:44:26.291Z,870.00
2024-04-25T08:45:25.387Z,872.00
2024-04-25T08:46:25.371Z,874.00
2024-04-25T08:47:25.432Z,873.00
2024-04-25T08:48:25.538Z,877.00
2024-04-25T08:49:26.247Z,874.00
2024-04-25T08:50:25.403Z,883.00
2024-04-25T08:51:25.344Z,892.00
2024-04-25T08:52:25.378Z,884.00
2024-04-25T08:53:25.426Z,889.00
2024-04-25T08:54:25.366Z,891.00
2024-04-25T08:55:25.902Z,891.00
2024-04-25T08:56:25.358Z,892.00
2024-04-25T08:57:25.350Z,890.00
2024-04-25T08:58:25.324Z,875.00
2024-04-25T08:59:25.321Z,870.00
2024-04-25T09:00:25.300Z,872.00
2024-04-25T09:01:25.291Z,872.00
2024-04-25T09:02:25.338Z,872.00
2024-04-25T09:03:25.396Z,865.00
2024-04-25T09:04:25.281Z,838.00
2024-04-25T09:05:25.294Z,854.00
2024-04-25T09:06:27.072Z,856.00
2024-04-25T09:07:25.213Z,838.00
2024-04-25T09:08:25.284Z,827.00
2024-04-25T09:09:25.161Z,811.00
2024-04-25T09:10:25.112Z,810.00
2024-04-25T09:11:25.241Z,816.00
2024-04-25T09:12:25.064Z,818.00
2024-04-25T09:13:25.009Z,824.00
2024-04-25T09:14:24.961Z,824.00
2024-04-25T09:15:24.923Z,824.00
2024-04-25T09:16:24.992Z,828.00
2024-04-25T09:17:24.866Z,839.00
2024-04-25T09:18:24.872Z,849.00
2024-04-25T09:19:24.742Z,825.00
2024-04-25T09:20:24.738Z,829.00
2024-04-25T09:21:24.678Z,890.00
2024-04-25T09:22:25.271Z,884.00
2024-04-25T09:23:25.381Z,910.00
2024-04-25T09:24:25.263Z,908.00
2024-04-25T09:25:25.297Z,897.00
2024-04-25T09:26:25.380Z,896.00
2024-04-25T09:27:25.481Z,890.00
2024-04-25T09:28:24.408Z,892.00
2024-04-25T09:29:24.408Z,898.00
2024-04-25T09:30:24.333Z,897.00
2024-04-25T09:31:24.766Z,900.00
2024-04-25T09:32:25.320Z,920.00
2024-04-25T09:33:24.224Z,907.00
2024-04-25T09:34:24.847Z,904.00
2024-04-25T09:35:26.321Z,892.00
2024-04-25T09:36:24.038Z,893.00
2024-04-25T09:37:24.008Z,894.00
2024-04-25T09:38:24.036Z,921.00
2024-04-25T09:39:23.937Z,921.00
2024-04-25T09:40:23.855Z,897.00
2024-04-25T09:41:23.834Z,895.00
2024-04-25T09:42:23.780Z,895.00
2024-04-25T09:43:23.750Z,881.00
2024-04-25T09:44:23.838Z,867.00
2024-04-25T09:45:23.751Z,855.00
2024-04-25T09:46:23.813Z,861.00
2024-04-25T09:47:23.795Z,867.00
2024-04-25T09:48:23.679Z,864.00
2024-04-25T09:49:24.347Z,864.00
2024-04-25T09:50:23.672Z,875.00
2024-04-25T09:51:23.606Z,877.00
2024-04-25T09:52:23.604Z,881.00
2024-04-25T09:53:25.287Z,878.00
2024-04-25T09:54:23.560Z,871.00
2024-04-25T09:55:24.507Z,864.00
2024-04-25T09:56:23.501Z,860.00
2024-04-25T09:57:23.417Z,865.00
2024-04-25T09:58:23.398Z,872.00
2024-04-25T09:59:23.345Z,872.00
2024-04-25T10:00:23.345Z,868.00
2024-04-25T10:01:24.258Z,860.00
2024-04-25T10:02:23.947Z,875.00
2024-04-25T10:03:23.156Z,884.00
2024-04-25T10:04:23.281Z,885.00
2024-04-25T10:05:23.173Z,877.00
2024-04-25T10:06:23.071Z,875.00
2024-04-25T10:07:23.035Z,878.00
2024-04-25T10:08:23.000Z,886.00
2024-04-25T10:09:22.931Z,877.00
2024-04-25T10:10:22.864Z,812.00
2024-04-25T10:11:22.879Z,787.00
2024-04-25T10:12:22.799Z,735.00
2024-04-25T10:13:22.735Z,736.00
2024-04-25T10:14:22.707Z,730.00
2024-04-25T10:15:22.750Z,720.00
2024-04-25T10:16:22.736Z,706.00
2024-04-25T10:17:22.723Z,686.00
2024-04-25T10:18:22.808Z,666.00
2024-04-25T10:19:22.694Z,651.00
2024-04-25T10:20:22.743Z,637.00
2024-04-25T10:21:22.719Z,637.00
2024-04-25T10:22:22.737Z,620.00
2024-04-25T10:23:22.729Z,604.00
2024-04-25T10:24:22.743Z,592.00
2024-04-25T10:25:22.724Z,588.00
2024-04-25T10:26:22.846Z,591.00
2024-04-25T10:27:22.759Z,584.00
2024-04-25T10:28:22.787Z,568.00
2024-04-25T10:29:22.790Z,565.00
2024-04-25T10:30:23.367Z,559.00
2024-04-25T10:31:22.806Z,557.00
2024-04-25T10:32:22.973Z,551.00
2024-04-25T10:33:22.945Z,548.00
2024-04-25T10:34:22.890Z,547.00
2024-04-25T10:35:22.934Z,543.00
2024-04-25T10:36:22.881Z,530.00
2024-04-25T10:37:22.917Z,528.00
2024-04-25T10:38:22.961Z,526.00
2024-04-25T10:39:23.131Z,516.00
2024-04-25T10:40:22.943Z,508.00
2024-04-25T10:41:22.977Z,505.00
2024-04-25T10:42:22.964Z,502.00
2024-04-25T10:43:22.987Z,500.00
2024-04-25T10:44:23.027Z,498.00
2024-04-25T10:45:23.009Z,496.00
2024-04-25T10:46:23.034Z,493.00
2024-04-25T10:47:23.132Z,490.00
2024-04-25T10:48:23.223Z,490.00
2024-04-25T10:49:23.189Z,490.00
2024-04-25T10:50:23.098Z,491.00
2024-04-25T10:51:23.090Z,484.00
2024-04-25T10:52:23.081Z,482.00
2024-04-25T10:53:23.104Z,485.00
2024-04-25T10:54:23.116Z,484.00
2024-04-25T10:55:23.173Z,482.00
2024-04-25T10:56:23.135Z,483.00
2024-04-25T10:57:23.175Z,482.00
2024-04-25T10:58:23.170Z,483.00
2024-04-25T10:59:23.188Z,481.00
2024-04-25T11:00:23.165Z,476.00
2024-04-25T11:01:23.184Z,474.00
2024-04-25T11:02:23.182Z,475.00
2024-04-25T11:03:23.239Z,477.00
2024-04-25T11:04:23.150Z,476.00
2024-04-25T11:05:23.210Z,474.00
2024-04-25T11:06:23.141Z,468.00
2024-04-25T11:07:23.131Z,467.00
2024-04-25T11:08:23.148Z,468.00
2024-04-25T11:09:23.102Z,467.00
2024-04-25T11:10:23.107Z,467.00
2024-04-25T11:11:23.379Z,470.00
2024-04-25T11:12:23.144Z,469.00
2024-04-25T11:13:23.122Z,468.00
2024-04-25T11:14:23.134Z,466.00
2024-04-25T11:15:23.093Z,466.00
2024-04-25T11:16:23.067Z,466.00
2024-04-25T11:17:23.097Z,464.00
2024-04-25T11:18:25.899Z,466.00
2024-04-25T11:20:23.177Z,466.00
2024-04-25T11:21:23.251Z,467.00
2024-04-25T11:22:30.655Z,466.00
2024-04-25T11:23:24.050Z,467.00
2024-04-25T11:24:23.259Z,466.00
2024-04-25T11:25:22.813Z,465.00
2024-04-25T11:26:22.796Z,466.00
2024-04-25T11:27:22.752Z,467.00
2024-04-25T11:28:22.715Z,467.00
2024-04-25T11:29:22.715Z,466.00
2024-04-25T11:30:22.666Z,464.00
2024-04-25T11:31:22.614Z,462.00
2024-04-25T11:32:22.655Z,458.00
2024-04-25T11:33:23.702Z,458.00
2024-04-25T11:34:22.570Z,460.00
2024-04-25T11:35:22.523Z,461.00
2024-04-25T11:36:22.443Z,463.00
2024-04-25T11:37:22.409Z,465.00
2024-04-25T11:38:22.523Z,465.00
2024-04-25T11:39:22.335Z,465.00
2024-04-25T11:40:22.300Z,464.00
2024-04-25T11:41:22.320Z,463.00
2024-04-25T11:42:22.239Z,462.00
2024-04-25T11:43:22.227Z,465.00
2024-04-25T11:44:22.218Z,467.00
2024-04-25T11:45:22.724Z,471.00
2024-04-25T11:46:22.153Z,472.00
2024-04-25T11:47:22.227Z,468.00
2024-04-25T11:48:22.372Z,469.00
2024-04-25T11:49:22.140Z,469.00
2024-04-25T11:50:22.123Z,468.00
2024-04-25T11:51:22.118Z,469.00
2024-04-25T11:52:22.114Z,470.00
2024-04-25T11:53:22.179Z,470.00
2024-04-25T11:54:22.096Z,471.00
2024-04-25T11:55:22.098Z,469.00
2024-04-25T11:56:22.088Z,466.00
2024-04-25T11:57:22.093Z,466.00
2024-04-25T11:58:22.036Z,468.00
2024-04-25T11:59:22.088Z,468.00
2024-04-25T12:00:22.028Z,468.00
2024-04-25T12:01:22.036Z,468.00
2024-04-25T12:02:22.087Z,534.00
2024-04-25T12:03:22.085Z,591.00
2024-04-25T12:04:22.049Z,577.00
2024-04-25T12:05:22.021Z,644.00
2024-04-25T12:06:21.995Z,654.00
2024-04-25T12:07:21.966Z,723.00
2024-04-25T12:08:22.001Z,769.00
2024-04-25T12:09:21.936Z,797.00
2024-04-25T12:10:21.949Z,799.00
2024-04-25T12:11:21.946Z,809.00
2024-04-25T12:12:22.021Z,816.00
2024-04-25T12:13:21.956Z,821.00
2024-04-25T12:14:21.985Z,822.00
2024-04-25T12:15:22.105Z,822.00
2024-04-25T12:16:22.014Z,829.00
2024-04-25T12:17:22.055Z,858.00
2024-04-25T12:18:22.127Z,877.00
2024-04-25T12:19:22.016Z,867.00
2024-04-25T12:20:22.060Z,869.00
2024-04-25T12:21:22.018Z,865.00
2024-04-25T12:22:22.024Z,861.00
2024-04-25T12:23:23.730Z,854.00
2024-04-25T12:24:22.009Z,865.00
2024-04-25T12:25:22.036Z,865.00
2024-04-25T12:26:21.976Z,872.00
2024-04-25T12:27:21.921Z,872.00
2024-04-25T12:28:21.887Z,883.00
2024-04-25T12:29:21.855Z,899.00